createdAt,value
2023-06-18T00:00:57.523Z,13.81
2023-06-18T00:03:46.955Z,13.84
2023-06-18T00:06:15.537Z,13.86
2023-06-18T00:08:43.775Z,13.89
2023-06-18T00:11:11.995Z,13.91
2023-06-18T00:13:41.261Z,13.92
2023-06-18T00:16:09.875Z,13.92
2023-06-18T00:18:38.155Z,13.93
2023-06-18T00:21:09.103Z,13.93
2023-06-18T00:23:38.252Z,13.94
2023-06-18T00:26:06.734Z,13.93
2023-06-18T00:28:36.019Z,13.92
2023-06-18T00:31:04.346Z,13.91
2023-06-18T00:33:34.951Z,13.90
2023-06-18T00:36:07.857Z,13.91
2023-06-18T00:38:37.384Z,13.90
2023-06-18T00:41:05.636Z,13.91
2023-06-18T00:43:34.614Z,13.90
2023-06-18T00:46:03.594Z,13.90
2023-06-18T00:48:32.484Z,13.88
2023-06-18T00:51:00.997Z,13.87
2023-06-18T00:53:29.400Z,13.85
2023-06-18T00:55:58.068Z,13.82
2023-06-18T00:58:26.661Z,13.79
2023-06-18T01:00:55.260Z,13.77
2023-06-18T01:03:26.500Z,13.75
2023-06-18T01:05:59.298Z,13.74
2023-06-18T01:08:34.424Z,13.74
2023-06-18T01:11:05.253Z,13.73
2023-06-18T01:13:38.130Z,13.73
2023-06-18T01:16:09.356Z,13.75
2023-06-18T01:18:46.637Z,13.77
2023-06-18T01:21:20.006Z,13.79
2023-06-18T01:24:05.853Z,13.82
2023-06-18T01:26:36.655Z,13.86
2023-06-18T01:29:05.253Z,13.90
2023-06-18T01:31:37.886Z,13.94
2023-06-18T01:34:07.663Z,13.96
2023-06-18T01:36:50.348Z,13.98
2023-06-18T01:39:45.078Z,14.00
2023-06-18T01:42:18.267Z,14.02
2023-06-18T01:44:52.665Z,14.02
2023-06-18T01:47:22.736Z,14.03
2023-06-18T01:49:51.751Z,14.04
2023-06-18T01:52:20.948Z,14.04
2023-06-18T01:54:50.893Z,14.05
2023-06-18T01:57:20.327Z,14.05
2023-06-18T01:59:48.587Z,14.06
2023-06-18T02:02:16.734Z,14.06
2023-06-18T02:04:45.529Z,14.04
2023-06-18T02:07:15.819Z,14.02
2023-06-18T02:09:44.952Z,14.00
2023-06-18T02:12:13.348Z,13.98
2023-06-18T02:14:41.797Z,13.95
2023-06-18T02:17:11.594Z,13.92
2023-06-18T02:19:41.087Z,13.89
2023-06-18T02:22:14.042Z,13.85
2023-06-18T02:24:54.136Z,13.82
2023-06-18T02:27:22.865Z,13.80
2023-06-18T02:29:51.198Z,13.78
2023-06-18T02:32:19.698Z,13.76
2023-06-18T02:34:48.103Z,13.74
2023-06-18T02:37:16.351Z,13.73
2023-06-18T02:39:45.036Z,13.70
2023-06-18T02:42:14.058Z,13.66
2023-06-18T02:44:43.987Z,13.64
2023-06-18T02:47:12.381Z,13.61
2023-06-18T02:49:40.600Z,13.59
2023-06-18T02:52:09.144Z,13.55
2023-06-18T02:54:39.499Z,13.50
2023-06-18T02:57:09.622Z,13.48
2023-06-18T02:59:38.067Z,13.45
2023-06-18T03:02:06.798Z,13.43
2023-06-18T03:04:35.050Z,13.41
2023-06-18T03:07:04.522Z,13.39
2023-06-18T03:09:33.884Z,13.37
2023-06-18T03:12:06.990Z,13.35
2023-06-18T03:14:35.832Z,13.31
2023-06-18T03:17:05.371Z,13.28
2023-06-18T03:19:35.410Z,13.25
2023-06-18T03:22:07.255Z,13.25
2023-06-18T03:24:35.822Z,13.23
2023-06-18T03:27:05.476Z,13.22
2023-06-18T03:29:37.992Z,13.23
2023-06-18T03:32:07.471Z,13.24
2023-06-18T03:34:37.395Z,13.23
2023-06-18T03:37:09.388Z,13.24
2023-06-18T03:39:38.087Z,13.27
2023-06-18T03:42:06.357Z,13.29
2023-06-18T03:44:34.712Z,13.32
2023-06-18T03:47:03.070Z,13.34
2023-06-18T03:49:32.022Z,13.38
2023-06-18T03:52:01.154Z,13.45
2023-06-18T03:54:33.238Z,13.52
2023-06-18T03:57:03.114Z,13.60
2023-06-18T03:59:33.082Z,13.68
2023-06-18T04:02:01.576Z,13.77
2023-06-18T04:04:30.320Z,13.87
2023-06-18T04:06:59.529Z,13.97
2023-06-18T04:09:29.974Z,14.07
2023-06-18T04:12:03.898Z,14.16
2023-06-18T04:14:32.632Z,14.25
2023-06-18T04:17:01.603Z,14.32
2023-06-18T04:19:30.773Z,14.36
2023-06-18T04:21:59.240Z,14.44
2023-06-18T04:24:27.804Z,14.50
2023-06-18T04:26:56.147Z,14.57
2023-06-18T04:29:24.778Z,14.64
2023-06-18T04:32:24.880Z,14.72
2023-06-18T04:34:53.844Z,14.81
2023-06-18T04:37:22.393Z,14.89
2023-06-18T04:39:50.830Z,14.96
2023-06-18T04:42:19.992Z,15.03
2023-06-18T04:44:49.057Z,15.11
2023-06-18T04:47:18.083Z,15.19
2023-06-18T04:49:49.049Z,15.27
2023-06-18T04:52:17.799Z,15.35
2023-06-18T04:54:47.321Z,15.45
2023-06-18T04:57:15.611Z,15.57
2023-06-18T04:59:43.918Z,15.69
2023-06-18T05:02:12.497Z,15.81
2023-06-18T05:04:41.589Z,15.90
2023-06-18T05:07:11.627Z,15.97
2023-06-18T05:09:41.794Z,16.04
2023-06-18T05:12:11.390Z,16.10
2023-06-18T05:14:39.886Z,16.17
2023-06-18T05:17:08.409Z,16.28
2023-06-18T05:19:36.871Z,16.42
2023-06-18T05:22:05.514Z,16.60
2023-06-18T05:24:35.841Z,16.76
2023-06-18T05:27:05.231Z,16.93
2023-06-18T05:29:33.847Z,17.09
2023-06-18T05:32:02.304Z,17.32
2023-06-18T05:34:32.693Z,17.55
2023-06-18T05:37:01.118Z,17.73
2023-06-18T05:39:30.375Z,17.85
2023-06-18T05:41:58.624Z,18.03
2023-06-18T05:44:27.602Z,18.25
2023-06-18T05:46:56.176Z,18.51
2023-06-18T05:49:27.191Z,18.75
2023-06-18T05:51:55.466Z,18.92
2023-06-18T05:54:23.824Z,18.92
2023-06-18T05:56:53.264Z,18.84
2023-06-18T05:59:22.766Z,18.87
2023-06-18T06:01:56.690Z,19.01
2023-06-18T06:04:25.790Z,19.22
2023-06-18T06:06:56.166Z,19.43
2023-06-18T06:09:24.703Z,19.66
2023-06-18T06:11:53.719Z,19.92
2023-06-18T06:14:22.068Z,20.16
2023-06-18T06:16:58.655Z,20.42
2023-06-18T06:19:28.026Z,20.67
2023-06-18T06:21:56.498Z,20.85
2023-06-18T06:24:24.847Z,20.94
2023-06-18T06:26:53.873Z,21.02
2023-06-18T06:29:22.288Z,20.98
2023-06-18T06:31:51.729Z,20.78
2023-06-18T06:34:21.592Z,20.66
2023-06-18T06:36:51.557Z,20.57
2023-06-18T06:39:20.158Z,20.61
2023-06-18T06:41:48.532Z,20.68
2023-06-18T06:44:17.876Z,20.88
2023-06-18T06:46:52.275Z,21.14
2023-06-18T06:49:40.863Z,21.32
2023-06-18T06:52:21.665Z,21.55
2023-06-18T06:54:50.761Z,21.83
2023-06-18T06:57:19.017Z,22.08
2023-06-18T06:59:47.284Z,22.33
2023-06-18T07:02:15.667Z,22.57
2023-06-18T07:04:47.578Z,22.87
2023-06-18T07:07:16.135Z,23.01
2023-06-18T07:09:44.538Z,23.15
2023-06-18T07:12:12.901Z,23.34
2023-06-18T07:14:41.374Z,23.44
2023-06-18T07:17:09.625Z,23.65
2023-06-18T07:19:37.925Z,23.89
2023-06-18T07:22:06.253Z,24.13
2023-06-18T07:24:34.563Z,24.17
2023-06-18T07:27:03.297Z,24.14
2023-06-18T07:29:31.554Z,23.74
2023-06-18T07:32:00.375Z,23.40
2023-06-18T07:34:28.579Z,23.14
2023-06-18T07:36:57.795Z,22.92
2023-06-18T07:39:27.651Z,22.78
2023-06-18T07:41:55.895Z,22.90
2023-06-18T07:44:24.173Z,23.15
2023-06-18T07:46:52.341Z,23.30
2023-06-18T07:49:22.491Z,23.31
2023-06-18T07:51:50.881Z,23.18
2023-06-18T07:54:19.116Z,23.17
2023-06-18T07:56:47.494Z,23.25
2023-06-18T07:59:15.666Z,23.31
2023-06-18T08:01:43.910Z,23.55
2023-06-18T08:04:12.301Z,23.87
2023-06-18T08:06:41.000Z,24.22
2023-06-18T08:09:09.139Z,24.44
2023-06-18T08:11:37.392Z,24.50
2023-06-18T08:14:05.890Z,24.31
2023-06-18T08:16:34.208Z,24.19
2023-06-18T08:19:02.574Z,24.16
2023-06-18T08:21:30.824Z,24.16
2023-06-18T08:23:58.987Z,24.36
2023-06-18T08:26:27.250Z,24.70
2023-06-18T08:28:55.523Z,25.02
2023-06-18T08:31:23.765Z,25.30
2023-06-18T08:33:52.053Z,25.42
2023-06-18T08:36:23.314Z,25.54
2023-06-18T08:38:52.189Z,25.68
2023-06-18T08:41:20.549Z,25.76
2023-06-18T08:43:48.751Z,25.94
2023-06-18T08:46:17.935Z,25.89
2023-06-18T08:49:01.860Z,25.91
2023-06-18T08:51:31.584Z,26.01
2023-06-18T08:54:19.961Z,26.09
2023-06-18T08:56:57.891Z,26.16
2023-06-18T08:59:28.269Z,26.39
2023-06-18T09:01:56.618Z,26.56
2023-06-18T09:04:26.907Z,26.70
2023-06-18T09:06:56.150Z,26.75
2023-06-18T09:09:26.579Z,26.93
2023-06-18T09:11:54.866Z,27.04
2023-06-18T09:14:27.169Z,26.97
2023-06-18T09:16:56.200Z,26.90
2023-06-18T09:19:25.776Z,26.83
2023-06-18T09:21:54.290Z,26.91
2023-06-18T09:24:24.264Z,27.13
2023-06-18T09:27:02.519Z,27.38
2023-06-18T09:29:34.161Z,27.62
2023-06-18T09:32:11.745Z,27.86
2023-06-18T09:34:41.938Z,28.23
2023-06-18T09:37:15.512Z,28.54
2023-06-18T09:39:45.403Z,28.81
2023-06-18T09:42:14.567Z,28.83
2023-06-18T09:44:47.092Z,29.02
2023-06-18T09:47:16.358Z,29.16
2023-06-18T09:49:49.575Z,29.08
2023-06-18T09:52:20.550Z,29.25
2023-06-18T09:54:48.741Z,29.48
2023-06-18T09:57:17.907Z,29.79
2023-06-18T09:59:46.567Z,30.03
2023-06-18T10:02:25.581Z,29.77
2023-06-18T10:04:54.115Z,29.43
2023-06-18T10:07:23.884Z,28.90
2023-06-18T10:09:52.445Z,28.45
2023-06-18T10:12:20.963Z,27.99
2023-06-18T10:14:54.594Z,27.58
2023-06-18T10:17:30.934Z,27.27
2023-06-18T10:20:11.183Z,27.09
2023-06-18T10:22:46.854Z,27.03
2023-06-18T10:25:15.335Z,27.04
2023-06-18T10:27:44.917Z,26.98
2023-06-18T10:30:13.624Z,26.83
2023-06-18T10:32:44.522Z,26.72
2023-06-18T10:35:14.558Z,26.70
2023-06-18T10:37:44.887Z,26.64
2023-06-18T10:40:13.540Z,26.64
2023-06-18T10:42:41.868Z,26.77
2023-06-18T10:45:11.381Z,26.89
2023-06-18T10:47:41.061Z,26.94
2023-06-18T10:50:10.854Z,26.79
2023-06-18T10:52:47.639Z,26.63
2023-06-18T10:55:21.955Z,26.45
2023-06-18T10:58:10.838Z,26.24
2023-06-18T11:00:42.156Z,26.03
2023-06-18T11:03:18.525Z,25.90
2023-06-18T11:05:50.744Z,25.76
2023-06-18T11:08:28.407Z,25.62
2023-06-18T11:11:06.587Z,25.49
2023-06-18T11:13:43.089Z,25.41
2023-06-18T11:16:15.962Z,25.35
2023-06-18T11:18:47.388Z,25.22
2023-06-18T11:21:22.434Z,25.06
2023-06-18T11:23:51.354Z,24.89
2023-06-18T11:26:21.507Z,24.81
2023-06-18T11:28:51.939Z,24.83
2023-06-18T11:31:20.215Z,24.99
2023-06-18T11:33:49.741Z,25.26
2023-06-18T11:36:20.727Z,25.56
2023-06-18T11:38:53.324Z,25.89
2023-06-18T11:41:24.330Z,26.20
2023-06-18T11:43:54.583Z,26.59
2023-06-18T11:46:39.268Z,27.04
2023-06-18T11:49:14.540Z,27.51
2023-06-18T11:51:42.762Z,27.91
2023-06-18T11:54:11.789Z,28.28
2023-06-18T11:56:40.667Z,28.61
2023-06-18T11:59:08.934Z,28.82
2023-06-18T12:01:37.278Z,28.71
2023-06-18T12:04:07.875Z,28.60
2023-06-18T12:06:39.065Z,28.65
2023-06-18T12:09:12.352Z,28.76
2023-06-18T12:11:43.548Z,28.45
2023-06-18T12:14:20.207Z,28.12
2023-06-18T12:16:51.397Z,27.87
2023-06-18T12:19:20.828Z,27.59
2023-06-18T12:21:49.755Z,27.34
2023-06-18T12:24:18.403Z,27.20
2023-06-18T12:26:47.011Z,27.08
2023-06-18T12:29:15.821Z,27.03
2023-06-18T12:31:44.894Z,26.89
2023-06-18T12:34:24.023Z,26.68
2023-06-18T12:36:56.915Z,26.47
2023-06-18T12:39:26.076Z,26.30
2023-06-18T12:41:56.460Z,26.20
2023-06-18T12:44:26.172Z,26.20
2023-06-18T12:46:58.211Z,26.39
2023-06-18T12:49:27.552Z,26.89
2023-06-18T12:51:55.989Z,27.38
2023-06-18T12:54:24.952Z,27.76
2023-06-18T12:56:55.966Z,28.03
2023-06-18T12:59:25.008Z,28.25
2023-06-18T13:01:54.502Z,28.24
2023-06-18T13:04:23.092Z,28.10
2023-06-18T13:06:51.725Z,27.77
2023-06-18T13:09:23.068Z,27.48
2023-06-18T13:11:53.300Z,27.21
2023-06-18T13:14:30.301Z,26.93
2023-06-18T13:17:03.131Z,26.63
2023-06-18T13:19:37.951Z,26.37
2023-06-18T13:22:09.959Z,26.14
2023-06-18T13:24:38.225Z,25.98
2023-06-18T13:27:06.751Z,25.82
2023-06-18T13:29:34.862Z,25.82
2023-06-18T13:32:04.580Z,25.83
2023-06-18T13:34:35.063Z,25.89
2023-06-18T13:37:03.495Z,26.06
2023-06-18T13:39:32.256Z,26.21
2023-06-18T13:42:00.628Z,26.49
2023-06-18T13:44:31.080Z,26.77
2023-06-18T13:47:00.402Z,26.86
2023-06-18T13:49:28.845Z,26.93
2023-06-18T13:52:00.020Z,27.09
2023-06-18T13:54:31.877Z,27.39
2023-06-18T13:57:00.273Z,27.56
2023-06-18T13:59:28.567Z,27.58
2023-06-18T14:01:56.738Z,27.64
2023-06-18T14:04:26.179Z,27.79
2023-06-18T14:06:54.837Z,27.77
2023-06-18T14:09:23.081Z,27.61
2023-06-18T14:11:51.285Z,27.53
2023-06-18T14:14:20.723Z,27.33
2023-06-18T14:16:49.241Z,27.11
2023-06-18T14:19:18.695Z,27.01
2023-06-18T14:21:47.035Z,26.96
2023-06-18T14:24:15.428Z,26.77
2023-06-18T14:26:43.819Z,26.58
2023-06-18T14:29:13.704Z,26.59
2023-06-18T14:31:41.907Z,26.66
2023-06-18T14:34:11.055Z,26.67
2023-06-18T14:36:40.006Z,26.66
2023-06-18T14:39:09.466Z,26.64
2023-06-18T14:41:37.722Z,26.62
2023-06-18T14:44:05.926Z,26.59
2023-06-18T14:46:34.210Z,26.53
2023-06-18T14:49:02.648Z,26.52
2023-06-18T14:51:30.809Z,26.56
2023-06-18T14:54:05.469Z,26.55
2023-06-18T14:56:34.591Z,26.48
2023-06-18T14:59:02.864Z,26.42
2023-06-18T15:01:31.068Z,26.37
2023-06-18T15:03:59.372Z,26.30
2023-06-18T15:06:28.753Z,26.24
2023-06-18T15:08:57.066Z,26.24
2023-06-18T15:11:25.467Z,26.21
2023-06-18T15:13:53.702Z,26.14
2023-06-18T15:16:22.072Z,26.03
2023-06-18T15:18:52.257Z,25.97
2023-06-18T15:21:20.784Z,25.91
2023-06-18T15:23:49.174Z,25.85
2023-06-18T15:26:21.390Z,25.75
2023-06-18T15:28:49.670Z,25.66
2023-06-18T15:31:18.865Z,25.56
2023-06-18T15:33:47.086Z,25.51
2023-06-18T15:36:15.382Z,25.44
2023-06-18T15:38:47.302Z,25.34
2023-06-18T15:41:15.752Z,25.20
2023-06-18T15:43:44.192Z,25.10
2023-06-18T15:46:13.318Z,24.95
2023-06-18T15:48:45.201Z,24.83
2023-06-18T15:51:13.558Z,24.75
2023-06-18T15:53:43.838Z,24.70
2023-06-18T15:56:12.268Z,24.70
2023-06-18T15:58:40.593Z,24.70
2023-06-18T16:01:09.247Z,24.71
2023-06-18T16:03:37.946Z,24.73
2023-06-18T16:06:06.409Z,24.71
2023-06-18T16:08:34.881Z,24.66
2023-06-18T16:11:03.842Z,24.61
2023-06-18T16:13:32.268Z,24.55
2023-06-18T16:16:01.385Z,24.46
2023-06-18T16:18:29.620Z,24.39
2023-06-18T16:20:58.020Z,24.29
2023-06-18T16:23:26.735Z,24.20
2023-06-18T16:25:55.038Z,24.13
2023-06-18T16:28:23.320Z,24.05
2023-06-18T16:30:51.827Z,23.96
2023-06-18T16:33:19.976Z,23.90
2023-06-18T16:35:48.237Z,23.84
2023-06-18T16:38:16.617Z,23.79
2023-06-18T16:40:44.791Z,23.70
2023-06-18T16:43:13.122Z,23.60
2023-06-18T16:45:41.857Z,23.52
2023-06-18T16:48:10.137Z,23.45
2023-06-18T16:50:39.377Z,23.40
2023-06-18T16:53:08.098Z,23.34
2023-06-18T16:55:36.688Z,23.29
2023-06-18T16:58:04.964Z,23.25
2023-06-18T17:00:34.424Z,23.22
2023-06-18T17:03:03.649Z,23.21
2023-06-18T17:05:32.476Z,23.20
2023-06-18T17:08:01.141Z,23.19
2023-06-18T17:10:30.041Z,23.17
2023-06-18T17:12:58.320Z,23.15
2023-06-18T17:15:27.197Z,23.11
2023-06-18T17:17:55.820Z,23.05
2023-06-18T17:20:24.089Z,23.00
2023-06-18T17:22:52.232Z,22.95
2023-06-18T17:25:20.898Z,22.89
2023-06-18T17:27:51.743Z,22.84
2023-06-18T17:30:20.102Z,22.76
2023-06-18T17:32:48.331Z,22.69
2023-06-18T17:35:16.749Z,22.64
2023-06-18T17:37:44.904Z,22.60
2023-06-18T17:40:13.564Z,22.54
2023-06-18T17:42:41.808Z,22.51
2023-06-18T17:45:10.918Z,22.47
2023-06-18T17:47:38.994Z,22.40
2023-06-18T17:50:07.614Z,22.32
2023-06-18T17:52:35.812Z,22.24
2023-06-18T17:55:04.288Z,22.16
2023-06-18T17:57:32.591Z,22.07
2023-06-18T18:00:02.692Z,21.95
2023-06-18T18:02:33.546Z,21.83
2023-06-18T18:05:02.168Z,21.71
2023-06-18T18:07:30.426Z,21.60
2023-06-18T18:09:58.735Z,21.50
2023-06-18T18:12:26.872Z,21.41
2023-06-18T18:14:57.415Z,21.31
2023-06-18T18:17:26.518Z,21.18
2023-06-18T18:19:56.785Z,21.04
2023-06-18T18:22:25.110Z,20.93
2023-06-18T18:24:53.414Z,20.81
2023-06-18T18:27:21.573Z,20.71
2023-06-18T18:29:49.739Z,20.60
2023-06-18T18:32:17.997Z,20.50
2023-06-18T18:34:46.283Z,20.39
2023-06-18T18:37:14.589Z,20.29
2023-06-18T18:39:42.877Z,20.18
2023-06-18T18:42:11.150Z,20.06
2023-06-18T18:44:41.059Z,19.94
2023-06-18T18:47:09.369Z,19.81
2023-06-18T18:49:37.640Z,19.68
2023-06-18T18:52:06.421Z,19.56
2023-06-18T18:54:34.802Z,19.43
2023-06-18T18:57:03.285Z,19.31
2023-06-18T18:59:31.487Z,19.20
2023-06-18T19:02:16.298Z,19.08
2023-06-18T19:04:44.559Z,18.96
2023-06-18T19:07:13.208Z,18.85
2023-06-18T19:09:41.493Z,18.71
2023-06-18T19:12:10.651Z,18.54
2023-06-18T19:14:39.985Z,18.40
2023-06-18T19:17:08.538Z,18.24
2023-06-18T19:19:36.806Z,18.10
2023-06-18T19:22:05.253Z,17.97
2023-06-18T19:24:34.027Z,17.85
2023-06-18T19:27:02.240Z,17.73
2023-06-18T19:29:30.495Z,17.59
2023-06-18T19:31:58.825Z,17.48
2023-06-18T19:34:27.350Z,17.36
2023-06-18T19:36:55.583Z,17.26
2023-06-18T19:39:23.886Z,17.16
2023-06-18T19:41:52.080Z,17.06
2023-06-18T19:44:23.396Z,16.96
2023-06-18T19:46:52.038Z,16.86
2023-06-18T19:49:20.195Z,16.80
2023-06-18T19:51:49.507Z,16.71
2023-06-18T19:54:17.776Z,16.61
2023-06-18T19:56:46.189Z,16.51
2023-06-18T19:59:14.391Z,16.42
2023-06-18T20:01:44.774Z,16.33
2023-06-18T20:04:13.113Z,16.26
2023-06-18T20:06:41.359Z,16.19
2023-06-18T20:09:10.167Z,16.10
2023-06-18T20:11:38.512Z,16.02
2023-06-18T20:14:06.710Z,15.93
2023-06-18T20:16:35.046Z,15.88
2023-06-18T20:19:04.527Z,15.81
2023-06-18T20:21:32.900Z,15.70
2023-06-18T20:24:01.323Z,15.62
2023-06-18T20:26:29.733Z,15.56
2023-06-18T20:28:58.032Z,15.48
2023-06-18T20:31:26.355Z,15.42
2023-06-18T20:33:56.795Z,15.35
2023-06-18T20:36:26.214Z,15.30
2023-06-18T20:38:54.652Z,15.26
2023-06-18T20:41:23.124Z,15.20
2023-06-18T20:43:51.303Z,15.15
2023-06-18T20:46:19.661Z,15.07
2023-06-18T20:48:48.036Z,15.00
2023-06-18T20:51:16.294Z,14.94
2023-06-18T20:53:44.856Z,14.88
2023-06-18T20:56:13.320Z,14.83
2023-06-18T20:58:41.614Z,14.78
2023-06-18T21:01:09.919Z,14.73
2023-06-18T21:03:42.923Z,14.68
2023-06-18T21:06:12.656Z,14.63
2023-06-18T21:08:41.174Z,14.56
2023-06-18T21:11:09.488Z,14.46
2023-06-18T21:13:37.855Z,14.38
2023-06-18T21:16:06.030Z,14.31
2023-06-18T21:18:34.305Z,14.25
2023-06-18T21:21:02.559Z,14.19
2023-06-18T21:23:31.006Z,14.13
2023-06-18T21:26:00.385Z,14.08
2023-06-18T21:28:28.760Z,14.03
2023-06-18T21:30:57.031Z,13.94
2023-06-18T21:33:25.188Z,13.88
2023-06-18T21:35:53.330Z,13.83
2023-06-18T21:38:21.547Z,13.81
2023-06-18T21:40:52.380Z,13.78
2023-06-18T21:43:21.057Z,13.76
2023-06-18T21:45:50.818Z,13.75
2023-06-18T21:48:19.139Z,13.72
2023-06-18T21:50:47.408Z,13.70
2023-06-18T21:53:15.611Z,13.68
2023-06-18T21:55:46.664Z,13.65
2023-06-18T21:58:14.981Z,13.60
2023-06-18T22:00:43.237Z,13.56
2023-06-18T22:03:12.010Z,13.51
2023-06-18T22:05:40.699Z,13.45
2023-06-18T22:08:19.446Z,13.43
2023-06-18T22:10:52.714Z,13.38
2023-06-18T22:13:20.920Z,13.35
2023-06-18T22:15:49.265Z,13.32
2023-06-18T22:18:17.497Z,13.29
2023-06-18T22:20:45.774Z,13.26
2023-06-18T22:23:14.056Z,13.22
2023-06-18T22:25:42.363Z,13.18
2023-06-18T22:28:11.262Z,13.14
2023-06-18T22:30:39.449Z,13.09
2023-06-18T22:33:07.740Z,13.07
2023-06-18T22:35:37.632Z,13.06
2023-06-18T22:38:05.802Z,13.04
2023-06-18T22:40:34.141Z,13.00
2023-06-18T22:43:02.363Z,12.95
2023-06-18T22:45:30.685Z,12.92
2023-06-18T22:47:59.489Z,12.90
2023-06-18T22:50:27.817Z,12.87
2023-06-18T22:52:57.151Z,12.84
2023-06-18T22:55:25.553Z,12.82
2023-06-18T22:57:54.019Z,12.79
2023-06-18T23:00:22.418Z,12.76
2023-06-18T23:02:51.046Z,12.74
2023-06-18T23:05:19.674Z,12.72
2023-06-18T23:07:47.899Z,12.70
2023-06-18T23:10:16.300Z,12.68
2023-06-18T23:12:44.504Z,12.66
2023-06-18T23:15:13.183Z,12.64
2023-06-18T23:17:43.272Z,12.59
2023-06-18T23:20:14.251Z,12.54
2023-06-18T23:22:43.609Z,12.51
2023-06-18T23:25:12.115Z,12.47
2023-06-18T23:27:41.247Z,12.44
2023-06-18T23:30:09.926Z,12.43
2023-06-18T23:32:39.873Z,12.41
2023-06-18T23:35:08.840Z,12.39
2023-06-18T23:37:37.198Z,12.37
2023-06-18T23:40:10.201Z,12.36
2023-06-18T23:42:38.570Z,12.33
2023-06-18T23:45:07.425Z,12.30
2023-06-18T23:47:35.616Z,12.27
2023-06-18T23:50:04.227Z,12.23
2023-06-18T23:52:32.520Z,12.21
2023-06-18T23:55:00.788Z,12.16
2023-06-18T23:57:30.690Z,12.13
2023-06-18T23:59:58.911Z,12.12
